sensor_id;sensor_type;location;lat;lon;timestamp;P1;durP1;ratioP1;P2;durP2;ratioP2
25153;SDS011;47555;51.038;6.280;2022-12-07T00:01:10;23.63;;;13.75;;
25153;SDS011;47555;51.038;6.280;2022-12-07T00:03:38;25.77;;;14.25;;
25153;SDS011;47555;51.038;6.280;2022-12-07T00:06:06;23.70;;;13.48;;
25153;SDS011;47555;51.038;6.280;2022-12-07T00:08:33;23.48;;;12.60;;
25153;SDS011;47555;51.038;6.280;2022-12-07T00:11:02;23.25;;;13.35;;
25153;SDS011;47555;51.038;6.280;2022-12-07T00:13:35;24.52;;;12.85;;
25153;SDS011;47555;51.038;6.280;2022-12-07T00:16:06;24.88;;;13.15;;
25153;SDS011;47555;51.038;6.280;2022-12-07T00:18:33;26.83;;;13.48;;
25153;SDS011;47555;51.038;6.280;2022-12-07T00:21:02;26.77;;;15.15;;
25153;SDS011;47555;51.038;6.280;2022-12-07T00:23:29;27.60;;;13.88;;
25153;SDS011;47555;51.038;6.280;2022-12-07T00:25:55;24.65;;;14.80;;
25153;SDS011;47555;51.038;6.280;2022-12-07T00:28:27;28.45;;;15.25;;
25153;SDS011;47555;51.038;6.280;2022-12-07T00:30:52;30.98;;;15.40;;
25153;SDS011;47555;51.038;6.280;2022-12-07T00:33:25;28.30;;;15.13;;
25153;SDS011;47555;51.038;6.280;2022-12-07T00:35:59;27.88;;;15.20;;
25153;SDS011;47555;51.038;6.280;2022-12-07T00:38:27;30.30;;;17.00;;
25153;SDS011;47555;51.038;6.280;2022-12-07T00:40:58;26.98;;;15.27;;
25153;SDS011;47555;51.038;6.280;2022-12-07T00:43:26;27.73;;;15.43;;
25153;SDS011;47555;51.038;6.280;2022-12-07T00:45:52;28.67;;;16.15;;
25153;SDS011;47555;51.038;6.280;2022-12-07T00:48:18;31.10;;;15.52;;
25153;SDS011;47555;51.038;6.280;2022-12-07T00:50:44;27.10;;;15.07;;
25153;SDS011;47555;51.038;6.280;2022-12-07T00:53:10;27.40;;;15.18;;
25153;SDS011;47555;51.038;6.280;2022-12-07T00:55:36;26.55;;;14.82;;
25153;SDS011;47555;51.038;6.280;2022-12-07T00:58:02;27.75;;;16.00;;
25153;SDS011;47555;51.038;6.280;2022-12-07T01:00:28;28.60;;;15.77;;
25153;SDS011;47555;51.038;6.280;2022-12-07T01:02:54;33.28;;;16.00;;
25153;SDS011;47555;51.038;6.280;2022-12-07T01:05:20;27.67;;;15.60;;
25153;SDS011;47555;51.038;6.280;2022-12-07T01:07:45;29.10;;;16.77;;
25153;SDS011;47555;51.038;6.280;2022-12-07T01:10:11;30.92;;;17.02;;
25153;SDS011;47555;51.038;6.280;2022-12-07T01:12:38;32.67;;;16.45;;
25153;SDS011;47555;51.038;6.280;2022-12-07T01:15:04;31.55;;;17.23;;
25153;SDS011;47555;51.038;6.280;2022-12-07T01:17:30;31.73;;;16.25;;
25153;SDS011;47555;51.038;6.280;2022-12-07T01:19:56;30.77;;;17.52;;
25153;SDS011;47555;51.038;6.280;2022-12-07T01:22:21;35.50;;;17.13;;
25153;SDS011;47555;51.038;6.280;2022-12-07T01:24:47;28.50;;;16.98;;
25153;SDS011;47555;51.038;6.280;2022-12-07T01:27:13;34.17;;;17.30;;
25153;SDS011;47555;51.038;6.280;2022-12-07T01:29:38;30.70;;;17.67;;
25153;SDS011;47555;51.038;6.280;2022-12-07T01:32:04;33.40;;;17.83;;
25153;SDS011;47555;51.038;6.280;2022-12-07T01:34:30;34.08;;;18.55;;
25153;SDS011;47555;51.038;6.280;2022-12-07T01:36:55;33.25;;;17.40;;
25153;SDS011;47555;51.038;6.280;2022-12-07T01:39:21;32.72;;;17.15;;
25153;SDS011;47555;51.038;6.280;2022-12-07T01:41:47;36.75;;;18.63;;
25153;SDS011;47555;51.038;6.280;2022-12-07T01:46:38;34.88;;;18.73;;
25153;SDS011;47555;51.038;6.280;2022-12-07T01:49:05;38.65;;;18.30;;
25153;SDS011;47555;51.038;6.280;2022-12-07T01:51:34;34.55;;;18.83;;
25153;SDS011;47555;51.038;6.280;2022-12-07T01:53:59;30.15;;;16.88;;
25153;SDS011;47555;51.038;6.280;2022-12-07T01:56:26;32.08;;;18.20;;
25153;SDS011;47555;51.038;6.280;2022-12-07T01:58:54;32.80;;;18.88;;
25153;SDS011;47555;51.038;6.280;2022-12-07T02:01:20;33.45;;;17.63;;
25153;SDS011;47555;51.038;6.280;2022-12-07T02:03:47;36.33;;;17.75;;
25153;SDS011;47555;51.038;6.280;2022-12-07T02:06:14;29.90;;;17.50;;
25153;SDS011;47555;51.038;6.280;2022-12-07T02:08:43;33.97;;;18.73;;
25153;SDS011;47555;51.038;6.280;2022-12-07T02:11:10;29.48;;;17.73;;
25153;SDS011;47555;51.038;6.280;2022-12-07T02:13:36;30.83;;;17.77;;
25153;SDS011;47555;51.038;6.280;2022-12-07T02:30:05;37.83;;;19.88;;
25153;SDS011;47555;51.038;6.280;2022-12-07T02:38:14;33.83;;;17.42;;
25153;SDS011;47555;51.038;6.280;2022-12-07T02:40:54;34.33;;;17.50;;
25153;SDS011;47555;51.038;6.280;2022-12-07T02:45:54;32.72;;;17.50;;
25153;SDS011;47555;51.038;6.280;2022-12-07T02:48:23;34.03;;;18.10;;
25153;SDS011;47555;51.038;6.280;2022-12-07T02:50:50;33.65;;;18.13;;
25153;SDS011;47555;51.038;6.280;2022-12-07T02:53:36;28.52;;;16.85;;
25153;SDS011;47555;51.038;6.280;2022-12-07T02:58:54;30.77;;;17.02;;
25153;SDS011;47555;51.038;6.280;2022-12-07T03:04:33;32.97;;;17.38;;
25153;SDS011;47555;51.038;6.280;2022-12-07T03:10:24;35.60;;;19.52;;
25153;SDS011;47555;51.038;6.280;2022-12-07T03:13:01;34.33;;;18.25;;
25153;SDS011;47555;51.038;6.280;2022-12-07T03:15:52;37.42;;;18.33;;
25153;SDS011;47555;51.038;6.280;2022-12-07T03:18:24;37.38;;;20.90;;
25153;SDS011;47555;51.038;6.280;2022-12-07T03:20:53;34.85;;;18.05;;
25153;SDS011;47555;51.038;6.280;2022-12-07T03:23:21;37.65;;;20.35;;
25153;SDS011;47555;51.038;6.280;2022-12-07T03:25:51;33.70;;;20.05;;
25153;SDS011;47555;51.038;6.280;2022-12-07T03:28:20;39.33;;;19.67;;
25153;SDS011;47555;51.038;6.280;2022-12-07T03:30:50;36.80;;;19.50;;
25153;SDS011;47555;51.038;6.280;2022-12-07T03:33:33;42.65;;;18.98;;
25153;SDS011;47555;51.038;6.280;2022-12-07T03:36:27;40.30;;;20.70;;
25153;SDS011;47555;51.038;6.280;2022-12-07T03:38:58;43.40;;;20.55;;
25153;SDS011;47555;51.038;6.280;2022-12-07T03:41:39;37.10;;;19.55;;
25153;SDS011;47555;51.038;6.280;2022-12-07T03:44:05;32.22;;;19.05;;
25153;SDS011;47555;51.038;6.280;2022-12-07T03:49:23;39.58;;;19.63;;
25153;SDS011;47555;51.038;6.280;2022-12-07T03:52:00;40.80;;;19.38;;
25153;SDS011;47555;51.038;6.280;2022-12-07T03:54:37;33.60;;;18.02;;
25153;SDS011;47555;51.038;6.280;2022-12-07T03:57:09;40.50;;;19.35;;
25153;SDS011;47555;51.038;6.280;2022-12-07T03:59:37;36.20;;;18.65;;
25153;SDS011;47555;51.038;6.280;2022-12-07T04:02:04;38.20;;;19.60;;
25153;SDS011;47555;51.038;6.280;2022-12-07T04:04:31;36.63;;;20.50;;
25153;SDS011;47555;51.038;6.280;2022-12-07T04:06:58;38.65;;;20.33;;
25153;SDS011;47555;51.038;6.280;2022-12-07T04:09:24;37.67;;;20.65;;
25153;SDS011;47555;51.038;6.280;2022-12-07T04:11:49;38.90;;;20.17;;
25153;SDS011;47555;51.038;6.280;2022-12-07T04:14:15;39.53;;;19.98;;
25153;SDS011;47555;51.038;6.280;2022-12-07T04:16:44;41.97;;;20.30;;
25153;SDS011;47555;51.038;6.280;2022-12-07T04:19:17;37.90;;;20.25;;
25153;SDS011;47555;51.038;6.280;2022-12-07T04:21:44;36.35;;;20.38;;
25153;SDS011;47555;51.038;6.280;2022-12-07T04:24:11;39.47;;;19.95;;
25153;SDS011;47555;51.038;6.280;2022-12-07T04:26:37;42.63;;;21.20;;
25153;SDS011;47555;51.038;6.280;2022-12-07T04:29:02;37.72;;;20.15;;
25153;SDS011;47555;51.038;6.280;2022-12-07T04:31:28;41.63;;;20.80;;
25153;SDS011;47555;51.038;6.280;2022-12-07T04:33:54;39.58;;;20.40;;
25153;SDS011;47555;51.038;6.280;2022-12-07T04:36:19;41.28;;;20.10;;
25153;SDS011;47555;51.038;6.280;2022-12-07T04:38:45;38.75;;;20.58;;
25153;SDS011;47555;51.038;6.280;2022-12-07T04:41:12;38.95;;;19.40;;
25153;SDS011;47555;51.038;6.280;2022-12-07T04:43:38;36.55;;;18.38;;
25153;SDS011;47555;51.038;6.280;2022-12-07T04:46:03;38.53;;;20.08;;
25153;SDS011;47555;51.038;6.280;2022-12-07T04:48:29;37.97;;;19.95;;
25153;SDS011;47555;51.038;6.280;2022-12-07T04:50:55;35.35;;;19.33;;
25153;SDS011;47555;51.038;6.280;2022-12-07T04:53:20;39.22;;;20.05;;
25153;SDS011;47555;51.038;6.280;2022-12-07T04:55:46;37.42;;;19.90;;
25153;SDS011;47555;51.038;6.280;2022-12-07T04:58:12;43.60;;;21.13;;
25153;SDS011;47555;51.038;6.280;2022-12-07T05:00:38;38.10;;;19.73;;
25153;SDS011;47555;51.038;6.280;2022-12-07T05:03:04;40.78;;;20.83;;
25153;SDS011;47555;51.038;6.280;2022-12-07T05:05:30;40.08;;;21.65;;
25153;SDS011;47555;51.038;6.280;2022-12-07T05:07:55;39.78;;;22.08;;
25153;SDS011;47555;51.038;6.280;2022-12-07T05:10:20;43.15;;;21.15;;
25153;SDS011;47555;51.038;6.280;2022-12-07T05:12:46;42.38;;;20.60;;
25153;SDS011;47555;51.038;6.280;2022-12-07T05:15:15;41.70;;;21.35;;
25153;SDS011;47555;51.038;6.280;2022-12-07T05:17:41;47.47;;;21.63;;
25153;SDS011;47555;51.038;6.280;2022-12-07T05:20:07;39.83;;;20.90;;
25153;SDS011;47555;51.038;6.280;2022-12-07T05:22:33;42.25;;;20.92;;
25153;SDS011;47555;51.038;6.280;2022-12-07T05:24:59;38.95;;;20.20;;
25153;SDS011;47555;51.038;6.280;2022-12-07T05:27:25;37.85;;;21.27;;
25153;SDS011;47555;51.038;6.280;2022-12-07T05:29:50;39.67;;;22.00;;
25153;SDS011;47555;51.038;6.280;2022-12-07T05:32:16;37.92;;;20.70;;
25153;SDS011;47555;51.038;6.280;2022-12-07T05:34:42;38.42;;;21.05;;
25153;SDS011;47555;51.038;6.280;2022-12-07T05:37:07;41.08;;;21.10;;
25153;SDS011;47555;51.038;6.280;2022-12-07T05:39:33;45.30;;;21.55;;
25153;SDS011;47555;51.038;6.280;2022-12-07T05:41:59;38.50;;;21.05;;
25153;SDS011;47555;51.038;6.280;2022-12-07T05:44:36;38.17;;;20.08;;
25153;SDS011;47555;51.038;6.280;2022-12-07T05:47:02;37.10;;;21.13;;
25153;SDS011;47555;51.038;6.280;2022-12-07T05:49:28;37.05;;;19.58;;
25153;SDS011;47555;51.038;6.280;2022-12-07T05:51:53;36.17;;;19.30;;
25153;SDS011;47555;51.038;6.280;2022-12-07T05:54:19;35.72;;;20.00;;
25153;SDS011;47555;51.038;6.280;2022-12-07T05:56:44;38.83;;;21.48;;
25153;SDS011;47555;51.038;6.280;2022-12-07T05:59:10;42.28;;;21.00;;
25153;SDS011;47555;51.038;6.280;2022-12-07T06:01:55;39.00;;;20.20;;
25153;SDS011;47555;51.038;6.280;2022-12-07T06:04:23;35.83;;;19.75;;
25153;SDS011;47555;51.038;6.280;2022-12-07T06:06:50;37.83;;;20.13;;
25153;SDS011;47555;51.038;6.280;2022-12-07T06:09:16;36.97;;;21.13;;
25153;SDS011;47555;51.038;6.280;2022-12-07T06:11:43;36.88;;;20.50;;
25153;SDS011;47555;51.038;6.280;2022-12-07T06:14:27;40.88;;;19.73;;
25153;SDS011;47555;51.038;6.280;2022-12-07T06:16:52;35.47;;;19.75;;
25153;SDS011;47555;51.038;6.280;2022-12-07T06:19:18;35.88;;;19.05;;
25153;SDS011;47555;51.038;6.280;2022-12-07T06:21:44;33.60;;;19.05;;
25153;SDS011;47555;51.038;6.280;2022-12-07T06:24:12;35.83;;;19.45;;
25153;SDS011;47555;51.038;6.280;2022-12-07T06:26:39;35.83;;;18.95;;
25153;SDS011;47555;51.038;6.280;2022-12-07T06:29:05;30.70;;;18.83;;
25153;SDS011;47555;51.038;6.280;2022-12-07T06:31:30;32.97;;;18.33;;
25153;SDS011;47555;51.038;6.280;2022-12-07T06:33:57;33.53;;;18.63;;
25153;SDS011;47555;51.038;6.280;2022-12-07T06:36:27;33.40;;;17.27;;
25153;SDS011;47555;51.038;6.280;2022-12-07T06:38:53;29.88;;;17.48;;
25153;SDS011;47555;51.038;6.280;2022-12-07T06:41:19;33.10;;;18.20;;
25153;SDS011;47555;51.038;6.280;2022-12-07T06:43:45;32.10;;;17.80;;
25153;SDS011;47555;51.038;6.280;2022-12-07T06:46:10;33.35;;;18.92;;
25153;SDS011;47555;51.038;6.280;2022-12-07T06:48:36;35.13;;;18.50;;
25153;SDS011;47555;51.038;6.280;2022-12-07T06:51:01;38.28;;;19.02;;
25153;SDS011;47555;51.038;6.280;2022-12-07T06:53:27;33.60;;;18.38;;
25153;SDS011;47555;51.038;6.280;2022-12-07T06:55:52;35.65;;;18.45;;
25153;SDS011;47555;51.038;6.280;2022-12-07T06:58:18;31.88;;;18.50;;
25153;SDS011;47555;51.038;6.280;2022-12-07T07:00:44;32.00;;;18.48;;
25153;SDS011;47555;51.038;6.280;2022-12-07T07:03:10;31.70;;;18.73;;
25153;SDS011;47555;51.038;6.280;2022-12-07T07:05:35;32.10;;;18.58;;
25153;SDS011;47555;51.038;6.280;2022-12-07T07:08:01;28.23;;;17.05;;
25153;SDS011;47555;51.038;6.280;2022-12-07T07:10:27;34.92;;;18.13;;
25153;SDS011;47555;51.038;6.280;2022-12-07T07:12:53;34.58;;;18.48;;
25153;SDS011;47555;51.038;6.280;2022-12-07T07:15:18;27.90;;;16.63;;
25153;SDS011;47555;51.038;6.280;2022-12-07T07:17:44;33.33;;;17.63;;
25153;SDS011;47555;51.038;6.280;2022-12-07T07:20:10;27.40;;;16.23;;
25153;SDS011;47555;51.038;6.280;2022-12-07T07:22:36;29.77;;;16.55;;
25153;SDS011;47555;51.038;6.280;2022-12-07T07:25:03;30.65;;;16.05;;
25153;SDS011;47555;51.038;6.280;2022-12-07T07:27:28;32.78;;;17.40;;
25153;SDS011;47555;51.038;6.280;2022-12-07T07:29:54;33.28;;;17.27;;
25153;SDS011;47555;51.038;6.280;2022-12-07T07:32:19;32.25;;;16.45;;
25153;SDS011;47555;51.038;6.280;2022-12-07T07:34:46;24.63;;;15.38;;
25153;SDS011;47555;51.038;6.280;2022-12-07T07:37:12;30.23;;;17.08;;
25153;SDS011;47555;51.038;6.280;2022-12-07T07:39:38;28.85;;;14.88;;
25153;SDS011;47555;51.038;6.280;2022-12-07T07:42:04;29.63;;;17.38;;
25153;SDS011;47555;51.038;6.280;2022-12-07T07:44:29;32.72;;;17.08;;
25153;SDS011;47555;51.038;6.280;2022-12-07T07:46:55;31.65;;;16.55;;
25153;SDS011;47555;51.038;6.280;2022-12-07T07:49:20;33.55;;;18.23;;
25153;SDS011;47555;51.038;6.280;2022-12-07T07:51:46;36.17;;;17.50;;
25153;SDS011;47555;51.038;6.280;2022-12-07T07:54:11;31.60;;;17.00;;
25153;SDS011;47555;51.038;6.280;2022-12-07T07:56:37;34.22;;;18.42;;
25153;SDS011;47555;51.038;6.280;2022-12-07T07:59:02;33.70;;;17.95;;
25153;SDS011;47555;51.038;6.280;2022-12-07T08:01:28;35.25;;;17.17;;
25153;SDS011;47555;51.038;6.280;2022-12-07T08:03:53;31.23;;;17.25;;
25153;SDS011;47555;51.038;6.280;2022-12-07T08:06:19;33.88;;;16.55;;
25153;SDS011;47555;51.038;6.280;2022-12-07T08:08:44;36.20;;;18.67;;
25153;SDS011;47555;51.038;6.280;2022-12-07T08:11:10;40.33;;;18.77;;
25153;SDS011;47555;51.038;6.280;2022-12-07T08:13:36;33.60;;;18.23;;
25153;SDS011;47555;51.038;6.280;2022-12-07T08:16:06;30.80;;;16.25;;
25153;SDS011;47555;51.038;6.280;2022-12-07T08:18:37;33.28;;;15.52;;
25153;SDS011;47555;51.038;6.280;2022-12-07T08:21:04;23.80;;;14.90;;
25153;SDS011;47555;51.038;6.280;2022-12-07T08:23:31;27.63;;;14.68;;
25153;SDS011;47555;51.038;6.280;2022-12-07T08:26:03;25.98;;;14.02;;
25153;SDS011;47555;51.038;6.280;2022-12-07T08:28:30;26.70;;;14.73;;
25153;SDS011;47555;51.038;6.280;2022-12-07T08:31:03;30.52;;;16.10;;
25153;SDS011;47555;51.038;6.280;2022-12-07T08:33:31;28.13;;;14.75;;
25153;SDS011;47555;51.038;6.280;2022-12-07T08:36:04;32.20;;;16.63;;
25153;SDS011;47555;51.038;6.280;2022-12-07T08:38:32;35.30;;;17.30;;
25153;SDS011;47555;51.038;6.280;2022-12-07T08:40:59;41.50;;;19.92;;
25153;SDS011;47555;51.038;6.280;2022-12-07T08:43:24;47.60;;;21.45;;
25153;SDS011;47555;51.038;6.280;2022-12-07T08:45:52;51.90;;;21.92;;
25153;SDS011;47555;51.038;6.280;2022-12-07T08:48:25;61.50;;;25.65;;
25153;SDS011;47555;51.038;6.280;2022-12-07T08:50:51;60.22;;;24.48;;
25153;SDS011;47555;51.038;6.280;2022-12-07T08:53:17;54.22;;;23.65;;
25153;SDS011;47555;51.038;6.280;2022-12-07T08:55:43;54.75;;;23.88;;
25153;SDS011;47555;51.038;6.280;2022-12-07T08:58:10;53.47;;;22.45;;
25153;SDS011;47555;51.038;6.280;2022-12-07T09:00:36;41.20;;;20.33;;
25153;SDS011;47555;51.038;6.280;2022-12-07T09:03:01;40.83;;;19.25;;
25153;SDS011;47555;51.038;6.280;2022-12-07T09:05:27;35.15;;;18.60;;
25153;SDS011;47555;51.038;6.280;2022-12-07T09:07:54;30.50;;;15.43;;
25153;SDS011;47555;51.038;6.280;2022-12-07T09:10:22;30.45;;;15.13;;
25153;SDS011;47555;51.038;6.280;2022-12-07T09:12:48;28.60;;;14.60;;
25153;SDS011;47555;51.038;6.280;2022-12-07T09:15:14;29.67;;;15.82;;
25153;SDS011;47555;51.038;6.280;2022-12-07T09:17:39;34.13;;;16.67;;
25153;SDS011;47555;51.038;6.280;2022-12-07T09:20:05;34.83;;;16.73;;
25153;SDS011;47555;51.038;6.280;2022-12-07T09:22:31;25.92;;;15.15;;
25153;SDS011;47555;51.038;6.280;2022-12-07T09:24:58;23.73;;;13.88;;
25153;SDS011;47555;51.038;6.280;2022-12-07T09:27:24;25.13;;;13.63;;
25153;SDS011;47555;51.038;6.280;2022-12-07T09:29:50;25.35;;;12.93;;
25153;SDS011;47555;51.038;6.280;2022-12-07T09:32:16;26.38;;;12.77;;
25153;SDS011;47555;51.038;6.280;2022-12-07T09:34:41;20.73;;;12.63;;
25153;SDS011;47555;51.038;6.280;2022-12-07T09:37:07;22.35;;;12.52;;
25153;SDS011;47555;51.038;6.280;2022-12-07T09:39:33;25.92;;;12.65;;
25153;SDS011;47555;51.038;6.280;2022-12-07T09:41:58;29.63;;;13.73;;
25153;SDS011;47555;51.038;6.280;2022-12-07T09:44:27;24.52;;;12.68;;
25153;SDS011;47555;51.038;6.280;2022-12-07T09:46:53;23.63;;;12.85;;
25153;SDS011;47555;51.038;6.280;2022-12-07T09:49:20;28.42;;;13.40;;
25153;SDS011;47555;51.038;6.280;2022-12-07T09:51:47;29.77;;;14.35;;
25153;SDS011;47555;51.038;6.280;2022-12-07T09:54:24;26.40;;;13.25;;
25153;SDS011;47555;51.038;6.280;2022-12-07T09:56:49;27.73;;;12.98;;
25153;SDS011;47555;51.038;6.280;2022-12-07T09:59:16;29.67;;;13.77;;
25153;SDS011;47555;51.038;6.280;2022-12-07T10:01:43;27.65;;;15.77;;
25153;SDS011;47555;51.038;6.280;2022-12-07T10:04:13;27.00;;;14.18;;
25153;SDS011;47555;51.038;6.280;2022-12-07T10:06:42;30.98;;;14.68;;
25153;SDS011;47555;51.038;6.280;2022-12-07T10:09:11;34.80;;;15.35;;
25153;SDS011;47555;51.038;6.280;2022-12-07T10:14:35;33.83;;;15.70;;
25153;SDS011;47555;51.038;6.280;2022-12-07T10:17:02;33.60;;;14.73;;
25153;SDS011;47555;51.038;6.280;2022-12-07T10:19:47;36.20;;;15.65;;
25153;SDS011;47555;51.038;6.280;2022-12-07T10:22:15;32.33;;;14.63;;
25153;SDS011;47555;51.038;6.280;2022-12-07T10:24:42;32.50;;;15.30;;
25153;SDS011;47555;51.038;6.280;2022-12-07T10:27:32;31.70;;;14.75;;
25153;SDS011;47555;51.038;6.280;2022-12-07T10:29:57;31.02;;;15.38;;
25153;SDS011;47555;51.038;6.280;2022-12-07T10:32:31;35.40;;;15.68;;
25153;SDS011;47555;51.038;6.280;2022-12-07T10:37:58;38.30;;;15.20;;
25153;SDS011;47555;51.038;6.280;2022-12-07T10:40:26;39.90;;;18.55;;
25153;SDS011;47555;51.038;6.280;2022-12-07T10:43:03;37.33;;;16.48;;
25153;SDS011;47555;51.038;6.280;2022-12-07T10:45:43;41.70;;;;;
25153;SDS011;47555;51.038;6.280;2022-12-07T10:48:52;40.85;;;17.27;;
25153;SDS011;47555;51.038;6.280;2022-12-07T10:51:42;44.33;;;18.52;;
25153;SDS011;47555;51.038;6.280;2022-12-07T10:54:41;44.90;;;18.55;;
25153;SDS011;47555;51.038;6.280;2022-12-07T11:00:40;39.58;;;18.80;;
25153;SDS011;47555;51.038;6.280;2022-12-07T11:03:30;43.00;;;18.40;;
25153;SDS011;47555;51.038;6.280;2022-12-07T11:09:03;33.25;;;15.75;;
25153;SDS011;47555;51.038;6.280;2022-12-07T11:11:51;32.03;;;15.00;;
25153;SDS011;47555;51.038;6.280;2022-12-07T11:14:32;31.67;;;15.38;;
25153;SDS011;47555;51.038;6.280;2022-12-07T11:17:13;24.15;;;13.65;;
25153;SDS011;47555;51.038;6.280;2022-12-07T11:19:52;27.52;;;14.63;;
25153;SDS011;47555;51.038;6.280;2022-12-07T11:30:41;32.95;;;15.15;;
25153;SDS011;47555;51.038;6.280;2022-12-07T11:33:44;28.05;;;13.63;;
25153;SDS011;47555;51.038;6.280;2022-12-07T11:36:30;30.10;;;13.02;;
25153;SDS011;47555;51.038;6.280;2022-12-07T11:39:11;24.58;;;12.70;;
25153;SDS011;47555;51.038;6.280;2022-12-07T11:41:49;27.00;;;12.90;;
25153;SDS011;47555;51.038;6.280;2022-12-07T11:47:30;25.27;;;12.05;;
25153;SDS011;47555;51.038;6.280;2022-12-07T11:52:50;24.33;;;12.40;;
25153;SDS011;47555;51.038;6.280;2022-12-07T11:55:28;23.60;;;12.18;;
25153;SDS011;47555;51.038;6.280;2022-12-07T12:00:48;21.10;;;10.95;;
25153;SDS011;47555;51.038;6.280;2022-12-07T12:03:22;24.33;;;12.18;;
25153;SDS011;47555;51.038;6.280;2022-12-07T12:05:56;21.50;;;11.98;;
25153;SDS011;47555;51.038;6.280;2022-12-07T12:08:33;24.25;;;11.55;;
25153;SDS011;47555;51.038;6.280;2022-12-07T12:13:52;27.00;;;12.48;;
25153;SDS011;47555;51.038;6.280;2022-12-07T12:16:27;23.50;;;11.38;;
25153;SDS011;47555;51.038;6.280;2022-12-07T12:19:33;18.00;;;9.55;;
25153;SDS011;47555;51.038;6.280;2022-12-07T12:22:14;18.27;;;9.63;;
25153;SDS011;47555;51.038;6.280;2022-12-07T12:24:43;14.40;;;8.20;;
25153;SDS011;47555;51.038;6.280;2022-12-07T12:27:18;19.77;;;9.27;;
25153;SDS011;47555;51.038;6.280;2022-12-07T12:30:00;18.58;;;8.52;;
25153;SDS011;47555;51.038;6.280;2022-12-07T12:32:32;18.42;;;8.85;;
25153;SDS011;47555;51.038;6.280;2022-12-07T12:35:21;20.20;;;9.80;;
25153;SDS011;47555;51.038;6.280;2022-12-07T12:37:53;14.43;;;8.07;;
25153;SDS011;47555;51.038;6.280;2022-12-07T12:42:49;13.07;;;7.90;;
25153;SDS011;47555;51.038;6.280;2022-12-07T12:45:18;14.52;;;7.25;;
25153;SDS011;47555;51.038;6.280;2022-12-07T12:47:54;15.13;;;6.60;;
25153;SDS011;47555;51.038;6.280;2022-12-07T12:53:01;17.45;;;7.80;;
25153;SDS011;47555;51.038;6.280;2022-12-07T12:55:45;14.02;;;7.30;;
25153;SDS011;47555;51.038;6.280;2022-12-07T12:58:35;14.27;;;7.72;;
25153;SDS011;47555;51.038;6.280;2022-12-07T13:04:01;13.73;;;6.25;;
25153;SDS011;47555;51.038;6.280;2022-12-07T13:06:33;10.38;;;5.85;;
25153;SDS011;47555;51.038;6.280;2022-12-07T13:09:03;9.85;;;5.63;;
25153;SDS011;47555;51.038;6.280;2022-12-07T13:11:29;14.60;;;7.28;;
25153;SDS011;47555;51.038;6.280;2022-12-07T13:14:35;16.80;;;6.72;;
25153;SDS011;47555;51.038;6.280;2022-12-07T13:17:11;10.75;;;6.45;;
25153;SDS011;47555;51.038;6.280;2022-12-07T13:19:58;14.40;;;7.47;;
25153;SDS011;47555;51.038;6.280;2022-12-07T13:24:59;14.63;;;7.22;;
25153;SDS011;47555;51.038;6.280;2022-12-07T13:27:48;13.57;;;6.70;;
25153;SDS011;47555;51.038;6.280;2022-12-07T13:30:39;12.38;;;7.30;;
25153;SDS011;47555;51.038;6.280;2022-12-07T13:33:13;14.07;;;8.02;;
25153;SDS011;47555;51.038;6.280;2022-12-07T13:35:41;10.90;;;6.85;;
25153;SDS011;47555;51.038;6.280;2022-12-07T13:38:23;12.88;;;7.45;;
25153;SDS011;47555;51.038;6.280;2022-12-07T13:41:05;12.05;;;7.32;;
25153;SDS011;47555;51.038;6.280;2022-12-07T13:43:42;11.57;;;6.70;;
25153;SDS011;47555;51.038;6.280;2022-12-07T13:46:08;12.98;;;6.90;;
25153;SDS011;47555;51.038;6.280;2022-12-07T13:48:43;9.15;;;6.25;;
25153;SDS011;47555;51.038;6.280;2022-12-07T13:51:26;10.10;;;6.13;;
25153;SDS011;47555;51.038;6.280;2022-12-07T13:53:59;12.27;;;7.15;;
25153;SDS011;47555;51.038;6.280;2022-12-07T13:56:28;8.95;;;6.28;;
25153;SDS011;47555;51.038;6.280;2022-12-07T13:58:58;12.85;;;6.88;;
25153;SDS011;47555;51.038;6.280;2022-12-07T14:01:24;10.40;;;7.13;;
25153;SDS011;47555;51.038;6.280;2022-12-07T14:03:50;11.50;;;6.53;;
25153;SDS011;47555;51.038;6.280;2022-12-07T14:06:17;14.13;;;6.97;;
25153;SDS011;47555;51.038;6.280;2022-12-07T14:08:46;12.68;;;7.38;;
25153;SDS011;47555;51.038;6.280;2022-12-07T14:11:13;9.93;;;6.55;;
25153;SDS011;47555;51.038;6.280;2022-12-07T14:13:50;17.90;;;7.00;;
25153;SDS011;47555;51.038;6.280;2022-12-07T14:16:24;10.90;;;6.88;;
25153;SDS011;47555;51.038;6.280;2022-12-07T14:18:54;12.80;;;6.75;;
25153;SDS011;47555;51.038;6.280;2022-12-07T14:21:23;9.18;;;5.60;;
25153;SDS011;47555;51.038;6.280;2022-12-07T14:26:37;8.07;;;5.10;;
25153;SDS011;47555;51.038;6.280;2022-12-07T14:31:56;6.03;;;3.90;;
25153;SDS011;47555;51.038;6.280;2022-12-07T14:34:24;5.25;;;4.00;;
25153;SDS011;47555;51.038;6.280;2022-12-07T14:36:50;5.40;;;4.25;;
25153;SDS011;47555;51.038;6.280;2022-12-07T14:39:15;5.95;;;4.50;;
25153;SDS011;47555;51.038;6.280;2022-12-07T14:41:41;7.65;;;4.57;;
25153;SDS011;47555;51.038;6.280;2022-12-07T14:44:16;4.25;;;3.35;;
25153;SDS011;47555;51.038;6.280;2022-12-07T14:46:43;4.00;;;2.88;;
25153;SDS011;47555;51.038;6.280;2022-12-07T14:49:08;6.82;;;4.28;;
25153;SDS011;47555;51.038;6.280;2022-12-07T14:51:34;9.02;;;5.07;;
25153;SDS011;47555;51.038;6.280;2022-12-07T14:54:06;6.90;;;5.28;;
25153;SDS011;47555;51.038;6.280;2022-12-07T14:56:38;6.50;;;4.53;;
25153;SDS011;47555;51.038;6.280;2022-12-07T14:59:04;10.45;;;4.95;;
25153;SDS011;47555;51.038;6.280;2022-12-07T15:01:29;6.10;;;4.93;;
25153;SDS011;47555;51.038;6.280;2022-12-07T15:03:55;6.82;;;4.60;;
25153;SDS011;47555;51.038;6.280;2022-12-07T15:06:20;9.57;;;4.82;;
25153;SDS011;47555;51.038;6.280;2022-12-07T15:08:46;5.45;;;4.57;;
25153;SDS011;47555;51.038;6.280;2022-12-07T15:11:16;10.15;;;6.70;;
25153;SDS011;47555;51.038;6.280;2022-12-07T15:13:42;9.48;;;6.10;;
25153;SDS011;47555;51.038;6.280;2022-12-07T15:16:26;11.05;;;7.20;;
25153;SDS011;47555;51.038;6.280;2022-12-07T15:18:52;9.25;;;6.20;;
25153;SDS011;47555;51.038;6.280;2022-12-07T15:21:17;11.73;;;7.65;;
25153;SDS011;47555;51.038;6.280;2022-12-07T15:23:43;10.55;;;6.95;;
25153;SDS011;47555;51.038;6.280;2022-12-07T15:26:10;8.30;;;6.10;;
25153;SDS011;47555;51.038;6.280;2022-12-07T15:28:36;9.77;;;6.47;;
25153;SDS011;47555;51.038;6.280;2022-12-07T15:31:01;11.77;;;7.45;;
25153;SDS011;47555;51.038;6.280;2022-12-07T15:33:27;9.38;;;6.55;;
25153;SDS011;47555;51.038;6.280;2022-12-07T15:35:53;9.70;;;6.20;;
25153;SDS011;47555;51.038;6.280;2022-12-07T15:38:18;9.52;;;7.05;;
25153;SDS011;47555;51.038;6.280;2022-12-07T15:40:46;9.00;;;6.53;;
25153;SDS011;47555;51.038;6.280;2022-12-07T15:43:12;15.07;;;6.88;;
25153;SDS011;47555;51.038;6.280;2022-12-07T15:46:13;10.75;;;7.05;;
25153;SDS011;47555;51.038;6.280;2022-12-07T15:48:39;11.32;;;6.78;;
25153;SDS011;47555;51.038;6.280;2022-12-07T15:51:05;10.13;;;6.55;;
25153;SDS011;47555;51.038;6.280;2022-12-07T15:53:32;11.45;;;8.27;;
25153;SDS011;47555;51.038;6.280;2022-12-07T15:55:58;14.07;;;8.20;;
25153;SDS011;47555;51.038;6.280;2022-12-07T15:58:24;11.00;;;7.35;;
25153;SDS011;47555;51.038;6.280;2022-12-07T16:00:49;12.43;;;7.00;;
25153;SDS011;47555;51.038;6.280;2022-12-07T16:03:15;13.18;;;7.28;;
25153;SDS011;47555;51.038;6.280;2022-12-07T16:05:40;14.80;;;7.75;;